sensor_id;sensor_type;location;lat;lon;timestamp;pressure;altitude;pressure_sealevel;temperature;humidity
44926;BME280;30662;51.210;7.656;2023-03-20T00:00:28;151069.88;;;9.08;100.00
44926;BME280;30662;51.210;7.656;2023-03-20T00:02:54;151098.94;;;9.20;100.00
44926;BME280;30662;51.210;7.656;2023-03-20T00:05:22;151050.91;;;9.00;100.00
44926;BME280;30662;51.210;7.656;2023-03-20T00:07:49;151042.03;;;8.97;100.00
44926;BME280;30662;51.210;7.656;2023-03-20T00:10:16;151033.22;;;8.93;100.00
44926;BME280;30662;51.210;7.656;2023-03-20T00:12:44;151034.47;;;8.94;100.00
44926;BME280;30662;51.210;7.656;2023-03-20T00:15:32;151028.16;;;8.91;100.00
44926;BME280;30662;51.210;7.656;2023-03-20T00:18:00;151039.50;;;8.96;100.00
44926;BME280;30662;51.210;7.656;2023-03-20T00:20:26;151023.06;;;8.89;100.00
44926;BME280;30662;51.210;7.656;2023-03-20T00:22:53;151012.97;;;8.85;100.00
44926;BME280;30662;51.210;7.656;2023-03-20T00:25:22;151012.97;;;8.85;100.00
44926;BME280;30662;51.210;7.656;2023-03-20T00:27:48;151010.47;;;8.84;100.00
44926;BME280;30662;51.210;7.656;2023-03-20T00:30:19;150981.38;;;8.72;100.00
44926;BME280;30662;51.210;7.656;2023-03-20T00:32:47;151006.63;;;8.82;100.00
44926;BME280;30662;51.210;7.656;2023-03-20T00:35:18;150994.03;;;8.77;100.00
44926;BME280;30662;51.210;7.656;2023-03-20T00:37:44;150992.75;;;8.77;100.00
44926;BME280;30662;51.210;7.656;2023-03-20T00:40:11;150975.06;;;8.70;100.00
44926;BME280;30662;51.210;7.656;2023-03-20T00:42:37;150982.63;;;8.73;100.00
44926;BME280;30662;51.210;7.656;2023-03-20T00:45:03;150981.38;;;8.72;100.00
44926;BME280;30662;51.210;7.656;2023-03-20T00:47:31;150994.03;;;8.77;100.00
44926;BME280;30662;51.210;7.656;2023-03-20T00:50:01;150962.41;;;8.65;100.00
44926;BME280;30662;51.210;7.656;2023-03-20T00:52:27;150953.53;;;8.61;100.00
44926;BME280;30662;51.210;7.656;2023-03-20T00:54:53;150935.84;;;8.54;100.00
44926;BME280;30662;51.210;7.656;2023-03-20T00:57:23;150952.28;;;8.61;100.00
44926;BME280;30662;51.210;7.656;2023-03-20T01:00:00;150901.75;;;8.40;100.00
44926;BME280;30662;51.210;7.656;2023-03-20T01:02:28;150881.44;;;8.32;100.00
44926;BME280;30662;51.210;7.656;2023-03-20T01:04:54;150848.63;;;8.19;100.00
44926;BME280;30662;51.210;7.656;2023-03-20T01:07:20;150849.88;;;8.19;100.00
44926;BME280;30662;51.210;7.656;2023-03-20T01:09:54;150854.91;;;8.21;100.00
44926;BME280;30662;51.210;7.656;2023-03-20T01:12:20;150866.31;;;8.26;100.00
44926;BME280;30662;51.210;7.656;2023-03-20T01:14:50;150843.53;;;8.17;100.00
44926;BME280;30662;51.210;7.656;2023-03-20T01:17:20;150785.41;;;7.93;100.00
44926;BME280;30662;51.210;7.656;2023-03-20T01:19:48;150777.84;;;7.90;100.00
44926;BME280;30662;51.210;7.656;2023-03-20T01:22:15;150815.75;;;8.06;100.00
44926;BME280;30662;51.210;7.656;2023-03-20T01:24:43;150798.06;;;7.98;100.00
44926;BME280;30662;51.210;7.656;2023-03-20T01:27:17;150813.22;;;8.05;100.00
44926;BME280;30662;51.210;7.656;2023-03-20T01:29:43;150798.06;;;7.98;100.00
44926;BME280;30662;51.210;7.656;2023-03-20T01:32:11;150768.97;;;7.87;100.00
44926;BME280;30662;51.210;7.656;2023-03-20T01:34:38;150738.66;;;7.74;100.00
44926;BME280;30662;51.210;7.656;2023-03-20T01:37:10;150724.78;;;7.69;100.00
44926;BME280;30662;51.210;7.656;2023-03-20T01:39:37;150723.53;;;7.68;100.00
44926;BME280;30662;51.210;7.656;2023-03-20T01:42:05;150712.16;;;7.64;100.00
44926;BME280;30662;51.210;7.656;2023-03-20T01:44:33;150722.28;;;7.68;100.00
44926;BME280;30662;51.210;7.656;2023-03-20T01:47:01;150694.47;;;7.57;100.00
44926;BME280;30662;51.210;7.656;2023-03-20T01:51:54;150626.25;;;7.29;100.00
44926;BME280;30662;51.210;7.656;2023-03-20T01:54:31;150575.72;;;7.09;100.00
44926;BME280;30662;51.210;7.656;2023-03-20T01:57:07;150577.00;;;7.09;100.00
44926;BME280;30662;51.210;7.656;2023-03-20T01:59:49;150593.41;;;7.16;100.00
44926;BME280;30662;51.210;7.656;2023-03-20T02:02:23;150579.56;;;7.10;100.00
44926;BME280;30662;51.210;7.656;2023-03-20T02:04:54;150559.31;;;7.02;100.00
44926;BME280;30662;51.210;7.656;2023-03-20T02:07:22;150531.56;;;6.91;100.00
44926;BME280;30662;51.210;7.656;2023-03-20T02:09:49;150564.41;;;7.04;100.00
44926;BME280;30662;51.210;7.656;2023-03-20T02:12:16;150544.19;;;6.96;100.00
44926;BME280;30662;51.210;7.656;2023-03-20T02:14:44;150525.25;;;6.88;100.00
44926;BME280;30662;51.210;7.656;2023-03-20T02:17:11;150539.13;;;6.94;100.00
44926;BME280;30662;51.210;7.656;2023-03-20T02:19:57;150526.53;;;6.89;100.00
44926;BME280;30662;51.210;7.656;2023-03-20T02:25:33;150517.66;;;6.85;100.00
44926;BME280;30662;51.210;7.656;2023-03-20T02:30:49;150525.25;;;6.88;100.00
44926;BME280;30662;51.210;7.656;2023-03-20T02:33:24;150539.13;;;6.94;100.00
44926;BME280;30662;51.210;7.656;2023-03-20T02:39:24;150486.09;;;6.73;100.00
44926;BME280;30662;51.210;7.656;2023-03-20T02:42:12;150505.03;;;6.80;100.00
44926;BME280;30662;51.210;7.656;2023-03-20T02:44:52;150492.44;;;6.75;100.00
44926;BME280;30662;51.210;7.656;2023-03-20T02:48:07;150506.34;;;6.81;100.00
44926;BME280;30662;51.210;7.656;2023-03-20T02:50:46;150527.78;;;6.89;100.00
44926;BME280;30662;51.210;7.656;2023-03-20T02:53:31;150539.13;;;6.94;100.00
44926;BME280;30662;51.210;7.656;2023-03-20T02:59:10;150536.59;;;6.93;100.00
44926;BME280;30662;51.210;7.656;2023-03-20T03:01:51;150525.25;;;6.88;100.00
44926;BME280;30662;51.210;7.656;2023-03-20T03:04:25;150527.78;;;6.89;100.00
44926;BME280;30662;51.210;7.656;2023-03-20T03:06:54;150465.91;;;6.64;100.00
44926;BME280;30662;51.210;7.656;2023-03-20T03:09:35;150467.16;;;6.65;100.00
44926;BME280;30662;51.210;7.656;2023-03-20T03:12:09;150453.31;;;6.59;100.00
44926;BME280;30662;51.210;7.656;2023-03-20T03:14:43;150417.97;;;6.45;100.00
44926;BME280;30662;51.210;7.656;2023-03-20T03:17:12;150433.06;;;6.51;100.00
44926;BME280;30662;51.210;7.656;2023-03-20T03:19:41;150388.94;;;6.33;100.00
44926;BME280;30662;51.210;7.656;2023-03-20T03:22:09;150455.84;;;6.60;100.00
44926;BME280;30662;51.210;7.656;2023-03-20T03:24:41;150479.78;;;6.70;100.00
44926;BME280;30662;51.210;7.656;2023-03-20T03:27:28;150445.72;;;6.56;100.00
44926;BME280;30662;51.210;7.656;2023-03-20T03:30:00;150429.31;;;6.50;100.00
44926;BME280;30662;51.210;7.656;2023-03-20T03:32:34;150448.22;;;6.57;100.00
44926;BME280;30662;51.210;7.656;2023-03-20T03:35:03;150421.75;;;6.47;100.00
44926;BME280;30662;51.210;7.656;2023-03-20T03:37:44;150446.97;;;6.57;100.00
44926;BME280;30662;51.210;7.656;2023-03-20T03:40:19;150472.25;;;6.67;100.00
44926;BME280;30662;51.210;7.656;2023-03-20T03:43:07;150477.28;;;6.69;100.00
44926;BME280;30662;51.210;7.656;2023-03-20T03:45:44;150460.88;;;6.62;100.00
44926;BME280;30662;51.210;7.656;2023-03-20T03:48:18;150479.78;;;6.70;100.00
44926;BME280;30662;51.210;7.656;2023-03-20T03:51:10;150476.03;;;6.69;100.00
44926;BME280;30662;51.210;7.656;2023-03-20T03:53:43;150468.41;;;6.66;100.00
44926;BME280;30662;51.210;7.656;2023-03-20T03:56:15;150473.50;;;6.68;100.00
44926;BME280;30662;51.210;7.656;2023-03-20T03:58:52;150412.88;;;6.43;100.00
44926;BME280;30662;51.210;7.656;2023-03-20T04:01:19;150419.22;;;6.46;100.00
44926;BME280;30662;51.210;7.656;2023-03-20T04:03:50;150448.22;;;6.57;100.00
44926;BME280;30662;51.210;7.656;2023-03-20T04:06:18;150459.59;;;6.62;100.00
44926;BME280;30662;51.210;7.656;2023-03-20T04:08:43;150430.56;;;6.50;100.00
44926;BME280;30662;51.210;7.656;2023-03-20T04:11:18;150453.31;;;6.59;100.00
44926;BME280;30662;51.210;7.656;2023-03-20T04:13:49;150460.88;;;6.62;100.00
44926;BME280;30662;51.210;7.656;2023-03-20T04:16:16;150450.75;;;6.58;100.00
44926;BME280;30662;51.210;7.656;2023-03-20T04:18:43;150452.00;;;6.59;100.00
44926;BME280;30662;51.210;7.656;2023-03-20T04:21:10;150448.22;;;6.57;100.00
44926;BME280;30662;51.210;7.656;2023-03-20T04:23:36;150401.56;;;6.39;100.00
44926;BME280;30662;51.210;7.656;2023-03-20T04:26:02;150407.84;;;6.41;100.00
44926;BME280;30662;51.210;7.656;2023-03-20T04:28:29;150401.56;;;6.39;100.00
44926;BME280;30662;51.210;7.656;2023-03-20T04:30:56;150391.44;;;6.34;100.00
44926;BME280;30662;51.210;7.656;2023-03-20T04:33:23;150361.16;;;6.22;100.00
44926;BME280;30662;51.210;7.656;2023-03-20T04:35:50;150390.19;;;6.34;100.00
44926;BME280;30662;51.210;7.656;2023-03-20T04:38:17;150387.66;;;6.33;100.00
44926;BME280;30662;51.210;7.656;2023-03-20T04:40:44;150387.66;;;6.33;100.00
44926;BME280;30662;51.210;7.656;2023-03-20T04:43:11;150386.41;;;6.32;100.00
44926;BME280;30662;51.210;7.656;2023-03-20T04:45:37;150391.44;;;6.34;100.00
44926;BME280;30662;51.210;7.656;2023-03-20T04:48:04;150405.34;;;6.40;100.00
44926;BME280;30662;51.210;7.656;2023-03-20T04:50:30;150383.91;;;6.31;100.00
44926;BME280;30662;51.210;7.656;2023-03-20T04:52:56;150375.03;;;6.28;100.00
44926;BME280;30662;51.210;7.656;2023-03-20T04:55:23;150409.13;;;6.42;100.00
44926;BME280;30662;51.210;7.656;2023-03-20T04:57:49;150364.97;;;6.24;100.00
44926;BME280;30662;51.210;7.656;2023-03-20T05:00:15;150376.28;;;6.28;100.00
44926;BME280;30662;51.210;7.656;2023-03-20T05:02:42;150362.41;;;6.23;100.00
44926;BME280;30662;51.210;7.656;2023-03-20T05:05:08;150373.78;;;6.27;100.00
44926;BME280;30662;51.210;7.656;2023-03-20T05:07:34;150347.31;;;6.17;100.00
44926;BME280;30662;51.210;7.656;2023-03-20T05:10:00;150346.03;;;6.16;100.00
44926;BME280;30662;51.210;7.656;2023-03-20T05:12:26;150325.81;;;6.08;100.00
44926;BME280;30662;51.210;7.656;2023-03-20T05:14:52;150349.81;;;6.18;100.00
44926;BME280;30662;51.210;7.656;2023-03-20T05:17:23;150340.97;;;6.14;100.00
44926;BME280;30662;51.210;7.656;2023-03-20T05:19:49;150342.22;;;6.15;100.00
44926;BME280;30662;51.210;7.656;2023-03-20T05:22:16;150354.84;;;6.20;100.00
44926;BME280;30662;51.210;7.656;2023-03-20T05:24:42;150348.56;;;6.17;100.00
44926;BME280;30662;51.210;7.656;2023-03-20T05:27:08;150393.97;;;6.35;100.00
44926;BME280;30662;51.210;7.656;2023-03-20T05:29:34;150387.66;;;6.33;100.00
44926;BME280;30662;51.210;7.656;2023-03-20T05:32:00;150377.56;;;6.29;100.00
44926;BME280;30662;51.210;7.656;2023-03-20T05:34:26;150340.97;;;6.14;100.00
44926;BME280;30662;51.210;7.656;2023-03-20T05:36:52;150362.41;;;6.23;100.00
44926;BME280;30662;51.210;7.656;2023-03-20T05:39:19;150395.22;;;6.36;100.00
44926;BME280;30662;51.210;7.656;2023-03-20T05:41:45;150368.75;;;6.25;100.00
44926;BME280;30662;51.210;7.656;2023-03-20T05:44:11;150308.16;;;6.01;100.00
44926;BME280;30662;51.210;7.656;2023-03-20T05:46:37;150289.22;;;5.93;100.00
44926;BME280;30662;51.210;7.656;2023-03-20T05:49:03;150320.78;;;6.06;100.00
44926;BME280;30662;51.210;7.656;2023-03-20T05:51:29;150354.84;;;6.20;100.00
44926;BME280;30662;51.210;7.656;2023-03-20T05:53:55;150334.66;;;6.12;100.00
44926;BME280;30662;51.210;7.656;2023-03-20T05:56:21;150344.78;;;6.16;100.00
44926;BME280;30662;51.210;7.656;2023-03-20T05:58:49;150348.56;;;6.17;100.00
44926;BME280;30662;51.210;7.656;2023-03-20T06:01:16;150373.78;;;6.27;100.00
44926;BME280;30662;51.210;7.656;2023-03-20T06:03:47;150357.38;;;6.21;100.00
44926;BME280;30662;51.210;7.656;2023-03-20T06:06:14;150354.84;;;6.20;100.00
44926;BME280;30662;51.210;7.656;2023-03-20T06:08:40;150338.44;;;6.13;100.00
44926;BME280;30662;51.210;7.656;2023-03-20T06:11:07;150347.31;;;6.17;100.00
44926;BME280;30662;51.210;7.656;2023-03-20T06:13:33;150353.59;;;6.19;100.00
44926;BME280;30662;51.210;7.656;2023-03-20T06:15:59;150363.72;;;6.23;100.00
44926;BME280;30662;51.210;7.656;2023-03-20T06:18:25;150363.72;;;6.23;100.00
44926;BME280;30662;51.210;7.656;2023-03-20T06:20:52;150358.63;;;6.21;100.00
44926;BME280;30662;51.210;7.656;2023-03-20T06:23:19;150392.69;;;6.35;100.00
44926;BME280;30662;51.210;7.656;2023-03-20T06:25:45;150361.16;;;6.22;100.00
44926;BME280;30662;51.210;7.656;2023-03-20T06:28:11;150391.44;;;6.34;100.00
44926;BME280;30662;51.210;7.656;2023-03-20T06:30:37;150390.19;;;6.34;100.00
44926;BME280;30662;51.210;7.656;2023-03-20T06:33:05;150372.53;;;6.27;100.00
44926;BME280;30662;51.210;7.656;2023-03-20T06:35:31;150387.66;;;6.33;100.00
44926;BME280;30662;51.210;7.656;2023-03-20T06:37:57;150358.63;;;6.21;100.00
44926;BME280;30662;51.210;7.656;2023-03-20T06:40:23;150382.63;;;6.31;100.00
44926;BME280;30662;51.210;7.656;2023-03-20T06:42:49;150363.72;;;6.23;100.00
44926;BME280;30662;51.210;7.656;2023-03-20T06:45:15;150376.28;;;6.28;100.00
44926;BME280;30662;51.210;7.656;2023-03-20T06:47:41;150371.25;;;6.26;100.00
44926;BME280;30662;51.210;7.656;2023-03-20T06:50:08;150357.38;;;6.21;100.00
44926;BME280;30662;51.210;7.656;2023-03-20T06:52:34;150377.56;;;6.29;100.00
44926;BME280;30662;51.210;7.656;2023-03-20T06:55:00;150381.38;;;6.30;100.00
44926;BME280;30662;51.210;7.656;2023-03-20T06:57:26;150357.38;;;6.21;100.00
44926;BME280;30662;51.210;7.656;2023-03-20T06:59:52;150346.03;;;6.16;100.00
44926;BME280;30662;51.210;7.656;2023-03-20T07:02:18;150300.59;;;5.98;100.00
44926;BME280;30662;51.210;7.656;2023-03-20T07:04:44;150353.59;;;6.19;100.00
44926;BME280;30662;51.210;7.656;2023-03-20T07:07:10;150323.28;;;6.07;100.00
44926;BME280;30662;51.210;7.656;2023-03-20T07:09:36;150310.72;;;6.02;100.00
44926;BME280;30662;51.210;7.656;2023-03-20T07:12:02;150281.63;;;5.90;100.00
44926;BME280;30662;51.210;7.656;2023-03-20T07:14:29;150294.31;;;5.95;100.00
44926;BME280;30662;51.210;7.656;2023-03-20T07:16:55;150318.25;;;6.05;100.00
44926;BME280;30662;51.210;7.656;2023-03-20T07:19:21;150330.91;;;6.10;100.00
44926;BME280;30662;51.210;7.656;2023-03-20T07:21:58;150356.09;;;6.20;100.00
44926;BME280;30662;51.210;7.656;2023-03-20T07:24:28;150311.97;;;6.02;100.00
44926;BME280;30662;51.210;7.656;2023-03-20T07:26:54;150315.75;;;6.04;100.00
44926;BME280;30662;51.210;7.656;2023-03-20T07:29:20;150309.47;;;6.01;100.00
44926;BME280;30662;51.210;7.656;2023-03-20T07:31:47;150343.47;;;6.15;100.00
44926;BME280;30662;51.210;7.656;2023-03-20T07:34:13;150373.78;;;6.27;100.00
44926;BME280;30662;51.210;7.656;2023-03-20T07:36:38;150414.16;;;6.44;100.00
44926;BME280;30662;51.210;7.656;2023-03-20T07:39:07;150380.06;;;6.30;100.00
44926;BME280;30662;51.210;7.656;2023-03-20T07:41:33;150382.63;;;6.31;100.00
44926;BME280;30662;51.210;7.656;2023-03-20T07:43:59;150396.47;;;6.36;100.00
44926;BME280;30662;51.210;7.656;2023-03-20T07:46:25;150335.94;;;6.12;100.00
44926;BME280;30662;51.210;7.656;2023-03-20T07:48:51;150328.38;;;6.09;100.00
44926;BME280;30662;51.210;7.656;2023-03-20T07:51:17;150342.22;;;6.15;100.00
44926;BME280;30662;51.210;7.656;2023-03-20T07:53:42;150343.47;;;6.15;100.00
44926;BME280;30662;51.210;7.656;2023-03-20T07:56:08;150335.94;;;6.12;100.00
44926;BME280;30662;51.210;7.656;2023-03-20T07:58:34;150347.31;;;6.17;100.00
44926;BME280;30662;51.210;7.656;2023-03-20T08:01:01;150382.63;;;6.31;100.00
44926;BME280;30662;51.210;7.656;2023-03-20T08:03:27;150378.81;;;6.29;100.00
44926;BME280;30662;51.210;7.656;2023-03-20T08:05:53;150425.53;;;6.48;100.00
44926;BME280;30662;51.210;7.656;2023-03-20T08:08:20;150430.56;;;6.50;100.00
44926;BME280;30662;51.210;7.656;2023-03-20T08:10:46;150476.03;;;6.69;100.00
44926;BME280;30662;51.210;7.656;2023-03-20T08:13:13;150445.72;;;6.56;100.00
44926;BME280;30662;51.210;7.656;2023-03-20T08:15:39;150459.59;;;6.62;100.00
44926;BME280;30662;51.210;7.656;2023-03-20T08:18:05;150479.78;;;6.70;100.00
44926;BME280;30662;51.210;7.656;2023-03-20T08:20:31;150448.22;;;6.57;100.00
44926;BME280;30662;51.210;7.656;2023-03-20T08:22:57;150463.38;;;6.63;100.00
44926;BME280;30662;51.210;7.656;2023-03-20T08:25:23;150453.31;;;6.59;100.00
44926;BME280;30662;51.210;7.656;2023-03-20T08:27:48;150508.84;;;6.82;100.00
44926;BME280;30662;51.210;7.656;2023-03-20T08:30:15;150597.22;;;7.17;100.00
44926;BME280;30662;51.210;7.656;2023-03-20T08:32:41;150532.81;;;6.91;100.00
44926;BME280;30662;51.210;7.656;2023-03-20T08:35:08;150501.25;;;6.79;100.00
44926;BME280;30662;51.210;7.656;2023-03-20T08:37:47;150474.75;;;6.68;100.00
44926;BME280;30662;51.210;7.656;2023-03-20T08:40:13;150457.09;;;6.61;100.00
44926;BME280;30662;51.210;7.656;2023-03-20T08:42:39;150417.97;;;6.45;100.00
44926;BME280;30662;51.210;7.656;2023-03-20T08:45:05;150425.53;;;6.48;100.00
44926;BME280;30662;51.210;7.656;2023-03-20T08:47:32;150469.69;;;6.66;100.00
44926;BME280;30662;51.210;7.656;2023-03-20T08:49:57;150434.38;;;6.52;100.00
44926;BME280;30662;51.210;7.656;2023-03-20T08:52:23;150487.34;;;6.73;100.00
44926;BME280;30662;51.210;7.656;2023-03-20T08:54:49;150479.78;;;6.70;100.00
44926;BME280;30662;51.210;7.656;2023-03-20T08:57:15;150549.25;;;6.98;100.00
44926;BME280;30662;51.210;7.656;2023-03-20T08:59:41;150573.22;;;7.08;100.00
44926;BME280;30662;51.210;7.656;2023-03-20T09:02:09;150532.81;;;6.91;100.00
44926;BME280;30662;51.210;7.656;2023-03-20T09:04:36;150573.22;;;7.08;100.00
44926;BME280;30662;51.210;7.656;2023-03-20T09:07:02;150618.69;;;7.26;100.00
44926;BME280;30662;51.210;7.656;2023-03-20T09:09:28;150537.84;;;6.94;100.00
44926;BME280;30662;51.210;7.656;2023-03-20T09:11:56;150561.88;;;7.03;100.00
44926;BME280;30662;51.210;7.656;2023-03-20T09:14:23;150566.91;;;7.05;100.00
44926;BME280;30662;51.210;7.656;2023-03-20T09:16:49;150585.84;;;7.13;100.00
44926;BME280;30662;51.210;7.656;2023-03-20T09:19:16;150593.41;;;7.16;100.00
44926;BME280;30662;51.210;7.656;2023-03-20T09:21:42;150609.81;;;7.23;100.00
44926;BME280;30662;51.210;7.656;2023-03-20T09:24:08;150558.06;;;7.02;100.00
44926;BME280;30662;51.210;7.656;2023-03-20T09:26:34;150583.34;;;7.12;100.00
44926;BME280;30662;51.210;7.656;2023-03-20T09:29:00;150666.66;;;7.45;100.00
44926;BME280;30662;51.210;7.656;2023-03-20T09:31:25;150691.94;;;7.56;100.00
44926;BME280;30662;51.210;7.656;2023-03-20T09:33:51;150712.16;;;7.64;100.00
44926;BME280;30662;51.210;7.656;2023-03-20T09:36:18;150703.28;;;7.60;100.00
44926;BME280;30662;51.210;7.656;2023-03-20T09:38:44;150727.31;;;7.70;100.00
44926;BME280;30662;51.210;7.656;2023-03-20T09:41:19;150625.00;;;7.29;100.00
44926;BME280;30662;51.210;7.656;2023-03-20T09:51:59;150601.00;;;7.19;100.00
44926;BME280;30662;51.210;7.656;2023-03-20T09:54:35;150625.00;;;7.29;100.00
44926;BME280;30662;51.210;7.656;2023-03-20T09:57:28;150613.59;;;7.24;100.00
44926;BME280;30662;51.210;7.656;2023-03-20T09:59:59;150597.22;;;7.17;100.00
44926;BME280;30662;51.210;7.656;2023-03-20T10:02:55;150642.66;;;7.36;100.00
44926;BME280;30662;51.210;7.656;2023-03-20T10:05:26;150555.53;;;7.01;100.00
44926;BME280;30662;51.210;7.656;2023-03-20T10:07:58;150627.50;;;7.30;100.00
44926;BME280;30662;51.210;7.656;2023-03-20T10:13:34;150694.47;;;7.57;100.00
44926;BME280;30662;51.210;7.656;2023-03-20T10:16:14;150685.59;;;7.53;100.00
44926;BME280;30662;51.210;7.656;2023-03-20T10:18:50;150671.75;;;7.47;100.00
44926;BME280;30662;51.210;7.656;2023-03-20T10:21:26;150648.97;;;7.38;100.00
44926;BME280;30662;51.210;7.656;2023-03-20T10:24:32;150641.41;;;7.35;100.00
44926;BME280;30662;51.210;7.656;2023-03-20T10:27:05;150651.53;;;7.39;100.00
44926;BME280;30662;51.210;7.656;2023-03-20T10:29:49;150621.22;;;7.27;100.00
44926;BME280;30662;51.210;7.656;2023-03-20T10:32:51;150627.50;;;7.30;100.00
44926;BME280;30662;51.210;7.656;2023-03-20T10:38:21;150544.19;;;6.96;100.00
44926;BME280;30662;51.210;7.656;2023-03-20T10:40:50;150589.63;;;7.14;100.00
44926;BME280;30662;51.210;7.656;2023-03-20T10:43:20;150622.47;;;7.28;100.00
44926;BME280;30662;51.210;7.656;2023-03-20T10:45:58;150553.00;;;7.00;100.00
44926;BME280;30662;51.210;7.656;2023-03-20T10:49:01;150578.28;;;7.10;100.00
44926;BME280;30662;51.210;7.656;2023-03-20T10:51:48;150544.19;;;6.96;100.00
44926;BME280;30662;51.210;7.656;2023-03-20T10:54:27;150590.88;;;7.15;100.00
44926;BME280;30662;51.210;7.656;2023-03-20T10:56:57;150646.44;;;7.37;100.00
44926;BME280;30662;51.210;7.656;2023-03-20T10:59:44;150640.16;;;7.35;100.00
44926;BME280;30662;51.210;7.656;2023-03-20T11:02:15;150654.06;;;7.40;100.00
44926;BME280;30662;51.210;7.656;2023-03-20T11:04:42;150626.25;;;7.29;100.00
44926;BME280;30662;51.210;7.656;2023-03-20T11:07:32;150585.84;;;7.13;100.00
44926;BME280;30662;51.210;7.656;2023-03-20T11:12:36;150564.41;;;7.04;100.00
44926;BME280;30662;51.210;7.656;2023-03-20T11:15:13;150517.66;;;6.85;100.00
44926;BME280;30662;51.210;7.656;2023-03-20T11:17:39;150516.41;;;6.85;100.00
44926;BME280;30662;51.210;7.656;2023-03-20T11:20:05;150582.06;;;7.11;100.00
44926;BME280;30662;51.210;7.656;2023-03-20T11:22:32;150578.28;;;7.10;100.00
44926;BME280;30662;51.210;7.656;2023-03-20T11:25:00;150645.19;;;7.37;100.00
44926;BME280;30662;51.210;7.656;2023-03-20T11:27:32;150689.41;;;7.55;100.00
44926;BME280;30662;51.210;7.656;2023-03-20T11:30:01;150739.97;;;7.75;100.00
44926;BME280;30662;51.210;7.656;2023-03-20T11:32:39;150736.13;;;7.73;100.00
44926;BME280;30662;51.210;7.656;2023-03-20T11:35:10;150704.59;;;7.61;100.00
44926;BME280;30662;51.210;7.656;2023-03-20T11:37:45;150741.22;;;7.76;100.00
44926;BME280;30662;51.210;7.656;2023-03-20T11:42:37;150862.47;;;8.24;97.90
44926;BME280;30662;51.210;7.656;2023-03-20T11:45:12;150822.06;;;8.08;97.54
44926;BME280;30662;51.210;7.656;2023-03-20T11:47:40;150810.66;;;8.03;97.27
44926;BME280;30662;51.210;7.656;2023-03-20T11:50:29;150846.06;;;8.18;97.12
44926;BME280;30662;51.210;7.656;2023-03-20T11:52:56;150843.53;;;8.17;96.25
44926;BME280;30662;51.210;7.656;2023-03-20T11:55:32;150853.66;;;8.21;94.66
44926;BME280;30662;51.210;7.656;2023-03-20T11:58:03;150791.72;;;7.96;97.71
44926;BME280;30662;51.210;7.656;2023-03-20T12:00:38;150753.81;;;7.81;97.61
44926;BME280;30662;51.210;7.656;2023-03-20T12:05:49;150707.09;;;7.62;95.03
44926;BME280;30662;51.210;7.656;2023-03-20T12:08:19;150768.97;;;7.87;94.74
44926;BME280;30662;51.210;7.656;2023-03-20T12:10:54;150823.31;;;8.09;93.21
44926;BME280;30662;51.210;7.656;2023-03-20T12:13:29;150853.66;;;8.21;92.33
44926;BME280;30662;51.210;7.656;2023-03-20T12:16:09;150854.91;;;8.21;90.91
44926;BME280;30662;51.210;7.656;2023-03-20T12:18:46;150991.50;;;8.76;88.45
44926;BME280;30662;51.210;7.656;2023-03-20T12:21:27;151001.59;;;8.80;86.15
44926;BME280;30662;51.210;7.656;2023-03-20T12:24:13;151025.59;;;8.90;86.47
44926;BME280;30662;51.210;7.656;2023-03-20T12:29:49;150972.50;;;8.69;84.58
44926;BME280;30662;51.210;7.656;2023-03-20T12:32:23;151004.09;;;8.81;83.53
44926;BME280;30662;51.210;7.656;2023-03-20T12:34:55;150904.28;;;8.41;79.31
44926;BME280;30662;51.210;7.656;2023-03-20T12:37:23;150951.00;;;8.60;73.93
44926;BME280;30662;51.210;7.656;2023-03-20T12:39:54;150962.41;;;8.65;72.35
44926;BME280;30662;51.210;7.656;2023-03-20T12:42:44;151048.38;;;8.99;72.87
44926;BME280;30662;51.210;7.656;2023-03-20T12:48:01;150833.44;;;8.13;70.88
44926;BME280;30662;51.210;7.656;2023-03-20T12:50:36;150892.88;;;8.37;72.46
44926;BME280;30662;51.210;7.656;2023-03-20T13:01:50;150724.78;;;7.69;77.57
44926;BME280;30662;51.210;7.656;2023-03-20T13:06:53;150698.25;;;7.58;80.28
44926;BME280;30662;51.210;7.656;2023-03-20T13:17:05;150762.69;;;7.84;80.43
44926;BME280;30662;51.210;7.656;2023-03-20T13:19:46;150753.81;;;7.81;80.41
44926;BME280;30662;51.210;7.656;2023-03-20T13:24:54;150755.06;;;7.81;82.04
44926;BME280;30662;51.210;7.656;2023-03-20T13:27:40;150702.03;;;7.60;84.86
44926;BME280;30662;51.210;7.656;2023-03-20T13:30:32;150693.19;;;7.56;87.85
44926;BME280;30662;51.210;7.656;2023-03-20T13:38:32;150723.53;;;7.68;88.66
44926;BME280;30662;51.210;7.656;2023-03-20T13:41:02;150733.59;;;7.72;88.41
44926;BME280;30662;51.210;7.656;2023-03-20T13:43:46;150627.50;;;7.30;87.71
44926;BME280;30662;51.210;7.656;2023-03-20T13:46:17;150618.69;;;7.26;89.85
44926;BME280;30662;51.210;7.656;2023-03-20T13:48:46;150608.56;;;7.22;90.21
44926;BME280;30662;51.210;7.656;2023-03-20T13:51:34;150604.78;;;7.21;92.64
44926;BME280;30662;51.210;7.656;2023-03-20T13:54:26;150616.16;;;7.25;92.57
44926;BME280;30662;51.210;7.656;2023-03-20T13:57:25;150583.34;;;7.12;97.21
44926;BME280;30662;51.210;7.656;2023-03-20T14:05:38;150628.75;;;7.30;100.00
44926;BME280;30662;51.210;7.656;2023-03-20T14:11:13;150561.88;;;7.03;100.00
44926;BME280;30662;51.210;7.656;2023-03-20T14:14:07;150636.38;;;7.33;100.00
44926;BME280;30662;51.210;7.656;2023-03-20T14:16:37;150627.50;;;7.30;100.00
44926;BME280;30662;51.210;7.656;2023-03-20T14:21:44;150560.63;;;7.03;100.00
44926;BME280;30662;51.210;7.656;2023-03-20T14:24:13;150584.59;;;7.12;100.00
44926;BME280;30662;51.210;7.656;2023-03-20T14:26:40;150583.34;;;7.12;100.00
44926;BME280;30662;51.210;7.656;2023-03-20T14:31:37;150597.22;;;7.17;100.00